Terminal Aerodrome Forecast
Issued by NWS

Home | Current Version | Previous Version | Graphics & Text | Print | Product List | Glossary On
Versions: 1 2 3 4 5 6 7 8 9 10 11 12 13 14
000
FTUS43 KMPX 280537
TAFRWF
TAF
KRWF 280537Z 2806/2906 13005KT P6SM OVC060
     FM280900 14007KT P6SM SKC
     FM281700 17017G27KT P6SM SCT200=

USA.gov is the U.S. government's official web portal to all federal, state and local government web resources and services.